Time;durP1;ratioP1;P1;durP2;ratioP2;P2;SDS_P1;SDS_P2;PMS_P1;PMS_P2;Temp;Humidity;BMP_temperature;BMP_pressure;BME280_temperature;BME280_humidity;BME280_pressure;Samples;Min_cycle;Max_cycle;Signal;HPM_P1;HPM_P2
2022/07/01 00:00:04;;;;;;;;;;;30.70;47.40;;;;;;5048071;28;20346;-63
2022/07/01 00:02:30;;;;;;;;;;;30.70;48.20;;;;;;5031043;28;19917;-63
2022/07/01 00:04:55;;;;;;;;;;;30.70;47.50;;;;;;5031297;28;19909;-63
2022/07/01 00:07:20;;;;;;;;;;;30.70;47.70;;;;;;5030569;28;20369;-62
2022/07/01 00:09:46;;;;;;;;;;;30.70;47.60;;;;;;5048681;28;19964;-62
2022/07/01 00:12:11;;;;;;;;;;;30.70;47.70;;;;;;5051544;28;19929;-62
2022/07/01 00:14:37;;;;;;;;;;;30.70;47.70;;;;;;5050979;28;19909;-62
2022/07/01 00:17:02;;;;;;;;;;;30.70;47.70;;;;;;5051114;28;19992;-62
2022/07/01 00:19:28;;;;;;;;;;;30.70;47.50;;;;;;5052370;28;19909;-62
2022/07/01 00:21:53;;;;;;;;;;;30.70;47.50;;;;;;5050493;28;19966;-62
2022/07/01 00:24:19;;;;;;;;;;;30.70;47.50;;;;;;5051964;28;20015;-62
2022/07/01 00:26:44;;;;;;;;;;;30.70;47.70;;;;;;5051628;28;19912;-62
2022/07/01 00:29:09;;;;;;;;;;;30.70;47.50;;;;;;5051924;28;20506;-62
2022/07/01 00:31:35;;;;;;;;;;;30.70;47.30;;;;;;5051188;28;20376;-62
2022/07/01 00:34:01;;;;;;;;;;;30.70;47.20;;;;;;5051934;28;20331;-62
2022/07/01 00:36:26;;;;;;;;;;;30.70;47.10;;;;;;5050149;28;19912;-62
2022/07/01 00:38:51;;;;;;;;;;;30.60;47.70;;;;;;5050544;28;19909;-62
2022/07/01 00:41:17;;;;;;;;;;;30.60;47.20;;;;;;5048416;28;20004;-62
2022/07/01 00:43:42;;;;;;;;;;;30.60;47.00;;;;;;5062926;28;19909;-62
2022/07/01 00:46:08;;;;;;;;;;;30.60;47.10;;;;;;5051826;28;19909;-62
2022/07/01 00:48:33;;;;;;;;;;;30.60;47.20;;;;;;5066181;28;19912;-62
2022/07/01 00:50:59;;;;;;;;;;;30.60;47.10;;;;;;5049401;28;19916;-62
2022/07/01 00:53:24;;;;;;;;;;;30.60;47.20;;;;;;5050292;28;19917;-62
2022/07/01 00:55:50;;;;;;;;;;;30.60;47.00;;;;;;5052564;28;19943;-62
2022/07/01 00:58:16;;;;;;;;;;;30.60;47.10;;;;;;5053961;28;20349;-62
2022/07/01 01:00:41;;;;;;;;;;;30.60;47.20;;;;;;5054216;28;20269;-62
2022/07/01 01:03:10;;;;;;;;;;;30.60;47.10;;;;;;5054432;28;19915;-62
2022/07/01 01:05:35;;;;;;;;;;;30.60;47.20;;;;;;5054183;28;19913;-62
2022/07/01 01:08:00;;;;;;;;;;;30.60;47.10;;;;;;5053922;28;19909;-62
2022/07/01 01:10:27;;;;;;;;;;;30.60;47.10;;;;;;5059968;28;19920;-62
2022/07/01 01:12:53;;;;;;;;;;;30.60;47.10;;;;;;5073924;28;19909;-62
2022/07/01 01:15:19;;;;;;;;;;;30.60;47.30;;;;;;5054002;28;19910;-62
2022/07/01 01:17:46;;;;;;;;;;;30.60;47.30;;;;;;5050275;28;19995;-62
2022/07/01 01:20:15;;;;;;;;;;;30.60;47.30;;;;;;5055069;28;19944;-63
2022/07/01 01:22:41;;;;;;;;;;;30.60;47.30;;;;;;5053680;28;19909;-62
2022/07/01 01:25:06;;;;;;;;;;;30.60;47.20;;;;;;5054988;28;19916;-62
2022/07/01 01:27:32;;;;;;;;;;;30.60;47.40;;;;;;5053577;28;19916;-62
2022/07/01 01:29:58;;;;;;;;;;;30.60;47.30;;;;;;5055024;28;20379;-62
2022/07/01 01:32:23;;;;;;;;;;;30.60;47.40;;;;;;5053932;28;19909;-62
2022/07/01 01:34:49;;;;;;;;;;;30.60;47.30;;;;;;5054729;28;19930;-63
2022/07/01 01:37:14;;;;;;;;;;;30.60;47.30;;;;;;5052033;28;20019;-63
2022/07/01 01:39:39;;;;;;;;;;;30.60;47.30;;;;;;5052448;28;19927;-62
2022/07/01 01:42:05;;;;;;;;;;;30.60;47.40;;;;;;5054417;28;19920;-62
2022/07/01 01:44:31;;;;;;;;;;;30.60;47.50;;;;;;5053429;28;20357;-62
2022/07/01 01:46:57;;;;;;;;;;;30.50;47.60;;;;;;5053632;28;20484;-62
2022/07/01 01:49:22;;;;;;;;;;;30.50;47.70;;;;;;5054433;28;20011;-62
2022/07/01 01:51:48;;;;;;;;;;;30.50;47.90;;;;;;5054102;28;19913;-62
2022/07/01 01:54:14;;;;;;;;;;;30.50;47.50;;;;;;5054522;28;19908;-62
2022/07/01 01:56:39;;;;;;;;;;;30.50;47.50;;;;;;5054165;28;20006;-63
2022/07/01 01:59:04;;;;;;;;;;;30.50;47.70;;;;;;5054288;28;19919;-62
2022/07/01 02:01:30;;;;;;;;;;;30.60;47.70;;;;;;5053251;28;19924;-62
2022/07/01 02:03:56;;;;;;;;;;;30.60;47.60;;;;;;5043597;28;19948;-62
2022/07/01 02:06:21;;;;;;;;;;;30.50;47.60;;;;;;5033903;28;19933;-62
2022/07/01 02:08:48;;;;;;;;;;;30.60;47.80;;;;;;5050514;28;20208;-62
2022/07/01 02:11:13;;;;;;;;;;;30.60;48.00;;;;;;5054241;28;19917;-62
2022/07/01 02:13:39;;;;;;;;;;;30.60;47.80;;;;;;5052742;28;20326;-62
2022/07/01 02:16:04;;;;;;;;;;;30.50;47.80;;;;;;5053990;28;19919;-62
2022/07/01 02:18:30;;;;;;;;;;;30.60;48.00;;;;;;5051757;28;19956;-62
2022/07/01 02:20:56;;;;;;;;;;;30.50;47.90;;;;;;5054016;28;19909;-62
2022/07/01 02:23:21;;;;;;;;;;;30.50;47.90;;;;;;5052413;28;20348;-62
2022/07/01 02:25:47;;;;;;;;;;;30.50;48.20;;;;;;5053778;28;19968;-62
2022/07/01 02:28:12;;;;;;;;;;;30.50;47.90;;;;;;5052152;28;19916;-62
2022/07/01 02:30:38;;;;;;;;;;;30.50;48.00;;;;;;5053677;28;19913;-62
2022/07/01 02:33:05;;;;;;;;;;;30.40;48.20;;;;;;5052673;28;19909;-62
2022/07/01 02:35:31;;;;;;;;;;;30.40;48.00;;;;;;5053871;28;19916;-63
2022/07/01 02:37:56;;;;;;;;;;;30.50;48.00;;;;;;5052029;28;20430;-62
2022/07/01 02:40:22;;;;;;;;;;;30.50;48.00;;;;;;5053757;28;20396;-62
2022/07/01 02:42:47;;;;;;;;;;;30.50;48.40;;;;;;5037487;28;19956;-62
2022/07/01 02:45:13;;;;;;;;;;;30.50;48.10;;;;;;5032173;28;19963;-62
2022/07/01 02:47:38;;;;;;;;;;;30.50;48.20;;;;;;5032610;28;19949;-62
2022/07/01 02:50:05;;;;;;;;;;;30.50;48.20;;;;;;5033406;28;19913;-62
2022/07/01 02:52:30;;;;;;;;;;;30.40;48.20;;;;;;5031935;28;20365;-62
2022/07/01 02:54:56;;;;;;;;;;;30.40;48.30;;;;;;5048696;28;19949;-62
2022/07/01 02:57:21;;;;;;;;;;;30.50;48.30;;;;;;5033224;28;19916;-62
2022/07/01 02:59:47;;;;;;;;;;;30.40;48.50;;;;;;5049736;28;20356;-63
2022/07/01 03:02:12;;;;;;;;;;;30.40;48.30;;;;;;5052048;28;19948;-63
2022/07/01 03:04:38;;;;;;;;;;;30.40;48.20;;;;;;5053433;28;19909;-63
2022/07/01 03:07:03;;;;;;;;;;;30.40;48.30;;;;;;5051542;28;19909;-63
2022/07/01 03:09:29;;;;;;;;;;;30.40;48.30;;;;;;5051440;28;20051;-63
2022/07/01 03:11:54;;;;;;;;;;;30.40;48.20;;;;;;5051502;28;19916;-63
2022/07/01 03:14:20;;;;;;;;;;;30.40;48.50;;;;;;5051524;28;19916;-63
2022/07/01 03:16:47;;;;;;;;;;;30.40;48.60;;;;;;5051739;28;19920;-64
2022/07/01 03:19:12;;;;;;;;;;;30.40;48.40;;;;;;5052368;28;19999;-62
2022/07/01 03:21:38;;;;;;;;;;;30.40;48.40;;;;;;5052592;28;20004;-62
2022/07/01 03:24:03;;;;;;;;;;;30.40;48.70;;;;;;5052823;28;19956;-62
2022/07/01 03:26:29;;;;;;;;;;;30.30;48.70;;;;;;5052748;28;19909;-62
2022/07/01 03:28:54;;;;;;;;;;;30.30;48.50;;;;;;5051324;28;19913;-63
2022/07/01 03:31:20;;;;;;;;;;;30.30;48.70;;;;;;5044311;28;19921;-63
2022/07/01 03:33:45;;;;;;;;;;;30.30;48.80;;;;;;5063739;28;19909;-62
2022/07/01 03:36:10;;;;;;;;;;;30.30;48.80;;;;;;5051147;28;19955;-62
2022/07/01 03:38:36;;;;;;;;;;;30.30;49.00;;;;;;5051202;28;19925;-63
2022/07/01 03:41:01;;;;;;;;;;;30.30;49.00;;;;;;5052362;28;19970;-63
2022/07/01 03:43:27;;;;;;;;;;;30.30;49.20;;;;;;5052582;28;19915;-63
2022/07/01 03:45:52;;;;;;;;;;;30.30;49.10;;;;;;5052459;28;19944;-63
2022/07/01 03:48:18;;;;;;;;;;;30.20;49.20;;;;;;5051622;28;19908;-63
2022/07/01 03:50:43;;;;;;;;;;;30.30;49.30;;;;;;5052159;28;20261;-63
2022/07/01 03:55:52;;;;;;;;;;;30.20;49.10;;;;;;5051210;28;19966;-63
2022/07/01 03:58:18;;;;;;;;;;;30.20;49.20;;;;;;5052022;28;19909;-63
2022/07/01 04:00:43;;;;;;;;;;;30.20;49.30;;;;;;5052302;28;19912;-63
2022/07/01 04:03:09;;;;;;;;;;;30.20;49.40;;;;;;5047079;28;19916;-62
2022/07/01 04:05:35;;;;;;;;;;;30.20;49.30;;;;;;5030954;28;19913;-62
2022/07/01 04:08:04;;;;;;;;;;;30.20;49.20;;;;;;5048889;28;20343;-62
2022/07/01 04:10:31;;;;;;;;;;;30.20;49.20;;;;;;5051832;28;19921;-62
2022/07/01 04:12:56;;;;;;;;;;;30.20;49.30;;;;;;5051860;28;19909;-62
2022/07/01 04:15:22;;;;;;;;;;;30.20;49.40;;;;;;5050790;28;20334;-62
2022/07/01 04:17:47;;;;;;;;;;;30.20;49.40;;;;;;5051138;28;19960;-62
2022/07/01 04:20:13;;;;;;;;;;;30.10;49.40;;;;;;5052312;28;19908;-62
2022/07/01 04:22:38;;;;;;;;;;;30.20;49.50;;;;;;5051827;28;19909;-62
2022/07/01 04:25:04;;;;;;;;;;;30.20;49.40;;;;;;5051788;28;20003;-62
2022/07/01 04:27:30;;;;;;;;;;;30.10;49.40;;;;;;5033890;28;19913;-62
2022/07/01 04:29:56;;;;;;;;;;;30.20;49.40;;;;;;5050732;28;19917;-62
2022/07/01 04:32:22;;;;;;;;;;;30.20;49.40;;;;;;5054664;28;20368;-62
2022/07/01 04:34:47;;;;;;;;;;;30.10;49.40;;;;;;5054826;28;19909;-62
2022/07/01 04:37:12;;;;;;;;;;;30.10;49.40;;;;;;5055847;28;19909;-62
2022/07/01 04:39:38;;;;;;;;;;;30.10;49.50;;;;;;5055791;28;20376;-62
2022/07/01 04:42:04;;;;;;;;;;;30.10;49.50;;;;;;5055541;28;19975;-62
2022/07/01 04:44:30;;;;;;;;;;;30.10;49.40;;;;;;5054538;28;19975;-62
2022/07/01 04:46:55;;;;;;;;;;;30.10;49.40;;;;;;5053531;28;19913;-62
2022/07/01 04:49:21;;;;;;;;;;;30.00;49.40;;;;;;5054269;28;19999;-62
2022/07/01 04:51:46;;;;;;;;;;;30.10;49.60;;;;;;5054131;28;20039;-62
2022/07/01 04:54:12;;;;;;;;;;;30.00;49.50;;;;;;5041281;28;19948;-62
2022/07/01 04:56:37;;;;;;;;;;;30.00;49.50;;;;;;5035302;28;20358;-62
2022/07/01 04:59:03;;;;;;;;;;;30.00;49.50;;;;;;5052775;28;19916;-62
2022/07/01 05:01:28;;;;;;;;;;;30.00;49.40;;;;;;5054538;28;19993;-62
2022/07/01 05:03:54;;;;;;;;;;;30.10;49.50;;;;;;5055360;28;19962;-62
2022/07/01 05:06:19;;;;;;;;;;;30.00;49.50;;;;;;5055155;28;19960;-62
2022/07/01 05:08:45;;;;;;;;;;;30.00;49.40;;;;;;5054958;28;19956;-62
2022/07/01 05:11:10;;;;;;;;;;;30.00;49.50;;;;;;5055146;28;19913;-62
2022/07/01 05:13:36;;;;;;;;;;;30.00;49.50;;;;;;5055047;28;19916;-62
2022/07/01 05:16:02;;;;;;;;;;;30.00;49.50;;;;;;5055115;28;19999;-62
2022/07/01 05:23:56;;;;;;;;;;;29.90;49.40;;;;;;5055157;28;19916;-62
2022/07/01 05:26:21;;;;;;;;;;;29.90;49.40;;;;;;5053510;28;19909;-62
2022/07/01 05:28:47;;;;;;;;;;;29.90;49.40;;;;;;5055038;28;19913;-62
2022/07/01 05:31:12;;;;;;;;;;;29.90;49.30;;;;;;5051384;28;19909;-62
2022/07/01 05:33:38;;;;;;;;;;;29.90;49.30;;;;;;5053905;28;19916;-62
2022/07/01 05:36:03;;;;;;;;;;;29.80;49.30;;;;;;5054704;28;19920;-62
2022/07/01 05:38:29;;;;;;;;;;;29.80;49.20;;;;;;5053677;28;19935;-62
2022/07/01 05:40:54;;;;;;;;;;;29.80;49.10;;;;;;5054725;28;19912;-62
2022/07/01 05:43:20;;;;;;;;;;;29.80;49.10;;;;;;5053957;28;20140;-62
2022/07/01 05:45:45;;;;;;;;;;;29.80;49.10;;;;;;5053596;28;19912;-62
2022/07/01 05:48:11;;;;;;;;;;;29.80;49.10;;;;;;5053792;28;19913;-62
2022/07/01 05:50:36;;;;;;;;;;;29.70;49.10;;;;;;5053220;28;19917;-62
2022/07/01 05:53:01;;;;;;;;;;;29.70;49.00;;;;;;5054367;28;19909;-62
2022/07/01 05:55:27;;;;;;;;;;;29.70;49.20;;;;;;5054492;28;19915;-62
2022/07/01 05:57:52;;;;;;;;;;;29.70;49.00;;;;;;5054180;28;19913;-62
2022/07/01 06:00:18;;;;;;;;;;;29.70;49.00;;;;;;5064752;28;19908;-62
2022/07/01 06:02:43;;;;;;;;;;;29.70;48.90;;;;;;5071898;28;19999;-62
2022/07/01 06:05:09;;;;;;;;;;;29.70;48.70;;;;;;5041074;28;19923;-62
2022/07/01 06:07:34;;;;;;;;;;;29.70;48.70;;;;;;5053909;28;19913;-62
2022/07/01 06:10:00;;;;;;;;;;;29.70;48.60;;;;;;5054048;28;20435;-62
2022/07/01 06:12:25;;;;;;;;;;;29.70;48.60;;;;;;5052386;28;20272;-62
2022/07/01 06:14:51;;;;;;;;;;;29.70;48.50;;;;;;5052829;28;20273;-62
2022/07/01 06:17:16;;;;;;;;;;;29.70;48.40;;;;;;5052893;28;19909;-62
2022/07/01 06:19:42;;;;;;;;;;;29.70;48.50;;;;;;5053987;28;19955;-62
2022/07/01 06:22:08;;;;;;;;;;;29.70;48.50;;;;;;5053523;28;20012;-62
2022/07/01 06:24:33;;;;;;;;;;;29.60;48.50;;;;;;5035947;28;19909;-62
2022/07/01 06:26:59;;;;;;;;;;;29.60;48.40;;;;;;5053664;28;19909;-62
2022/07/01 06:29:27;;;;;;;;;;;29.60;48.40;;;;;;5052494;28;19917;-62
2022/07/01 06:31:52;;;;;;;;;;;29.60;48.40;;;;;;5052743;28;19909;-62
2022/07/01 06:34:18;;;;;;;;;;;29.60;48.30;;;;;;5051714;28;19917;-62
2022/07/01 06:36:43;;;;;;;;;;;29.60;48.20;;;;;;5053176;28;19932;-62
2022/07/01 06:39:09;;;;;;;;;;;29.60;48.10;;;;;;5053463;28;20003;-62
2022/07/01 06:41:34;;;;;;;;;;;29.70;48.10;;;;;;5052347;28;19962;-62
2022/07/01 06:44:00;;;;;;;;;;;29.60;48.00;;;;;;5052225;28;19936;-62
2022/07/01 06:46:26;;;;;;;;;;;29.60;48.10;;;;;;5051416;28;19924;-62
2022/07/01 06:48:51;;;;;;;;;;;29.50;48.10;;;;;;5051959;28;19909;-62
2022/07/01 06:51:17;;;;;;;;;;;29.50;48.40;;;;;;5053406;28;19919;-62
2022/07/01 06:53:44;;;;;;;;;;;29.50;48.80;;;;;;5049783;28;20443;-62
2022/07/01 06:56:10;;;;;;;;;;;29.50;48.10;;;;;;5053180;28;19952;-62
2022/07/01 06:58:36;;;;;;;;;;;29.50;48.10;;;;;;5045457;28;19920;-62
2022/07/01 07:01:01;;;;;;;;;;;29.40;48.10;;;;;;5050004;28;19956;-63
2022/07/01 07:03:27;;;;;;;;;;;29.40;48.10;;;;;;5037337;28;20377;-63
2022/07/01 07:05:52;;;;;;;;;;;29.50;48.10;;;;;;5044953;28;19955;-62
2022/07/01 07:08:18;;;;;;;;;;;29.50;48.30;;;;;;5052472;28;19909;-63
2022/07/01 07:10:43;;;;;;;;;;;29.40;48.30;;;;;;5052340;28;20340;-63
2022/07/01 07:13:08;;;;;;;;;;;29.40;48.60;;;;;;5052104;28;20469;-63
2022/07/01 07:15:34;;;;;;;;;;;29.30;48.80;;;;;;5048071;28;19940;-62
2022/07/01 07:17:59;;;;;;;;;;;29.30;48.80;;;;;;5047321;28;19924;-62
2022/07/01 07:20:25;;;;;;;;;;;29.20;48.80;;;;;;5046650;28;19920;-62
2022/07/01 07:22:50;;;;;;;;;;;29.20;49.70;;;;;;5045546;28;19975;-63
2022/07/01 07:25:16;;;;;;;;;;;29.20;49.20;;;;;;5046120;28;19912;-62
2022/07/01 07:27:45;;;;;;;;;;;29.10;49.10;;;;;;5051442;28;20438;-63
2022/07/01 07:30:15;;;;;;;;;;;29.10;49.00;;;;;;5045351;28;19917;-63
2022/07/01 07:32:41;;;;;;;;;;;29.10;49.00;;;;;;5047148;28;20449;-63
2022/07/01 07:35:07;;;;;;;;;;;29.10;49.10;;;;;;5052010;28;19909;-63
2022/07/01 07:37:32;;;;;;;;;;;29.10;49.20;;;;;;5050647;28;20389;-63
2022/07/01 07:39:58;;;;;;;;;;;29.10;49.00;;;;;;5051912;28;20299;-63
2022/07/01 07:42:23;;;;;;;;;;;29.10;49.00;;;;;;5051753;28;19909;-63
2022/07/01 07:44:49;;;;;;;;;;;29.10;49.00;;;;;;5051902;28;19932;-63
2022/07/01 07:47:14;;;;;;;;;;;29.10;48.90;;;;;;5050926;28;19913;-62
2022/07/01 07:49:40;;;;;;;;;;;29.10;48.80;;;;;;5051725;28;20410;-63
2022/07/01 07:52:06;;;;;;;;;;;29.10;48.70;;;;;;5051495;28;19958;-63
2022/07/01 07:54:31;;;;;;;;;;;29.10;48.60;;;;;;5050041;28;19919;-63
2022/07/01 07:56:56;;;;;;;;;;;29.20;48.30;;;;;;5051573;28;19939;-63
2022/07/01 07:59:22;;;;;;;;;;;29.20;48.20;;;;;;5050530;28;19909;-63
2022/07/01 08:01:47;;;;;;;;;;;29.20;48.10;;;;;;5050874;28;19917;-63
2022/07/01 08:04:13;;;;;;;;;;;29.20;47.90;;;;;;5050130;28;20348;-63
2022/07/01 08:06:38;;;;;;;;;;;29.20;47.90;;;;;;5051205;28;20002;-63
2022/07/01 08:09:04;;;;;;;;;;;29.20;47.80;;;;;;5049995;28;19920;-63
2022/07/01 08:11:29;;;;;;;;;;;29.10;47.80;;;;;;5050277;28;19912;-63
2022/07/01 08:13:55;;;;;;;;;;;29.10;47.80;;;;;;5052022;28;19912;-63
2022/07/01 08:16:21;;;;;;;;;;;29.10;47.70;;;;;;5049787;28;20316;-63
2022/07/01 08:18:46;;;;;;;;;;;29.00;47.80;;;;;;5051193;28;19909;-63
2022/07/01 08:21:12;;;;;;;;;;;28.90;47.90;;;;;;5042881;28;19909;-63
2022/07/01 08:23:37;;;;;;;;;;;28.90;47.90;;;;;;5051208;28;19917;-63
2022/07/01 08:26:02;;;;;;;;;;;28.90;47.50;;;;;;5051579;28;19908;-63
2022/07/01 08:28:28;;;;;;;;;;;28.90;47.50;;;;;;5051206;28;19929;-63
2022/07/01 08:30:53;;;;;;;;;;;28.80;47.50;;;;;;5050063;28;19912;-63
2022/07/01 08:33:19;;;;;;;;;;;28.80;47.70;;;;;;5049215;28;20371;-63
2022/07/01 08:35:44;;;;;;;;;;;28.80;47.50;;;;;;5051429;28;20375;-63
2022/07/01 08:38:10;;;;;;;;;;;28.80;47.40;;;;;;5051106;28;19912;-62
2022/07/01 08:40:36;;;;;;;;;;;28.80;47.30;;;;;;5051192;28;19909;-63
2022/07/01 08:43:05;;;;;;;;;;;28.90;47.40;;;;;;5051078;28;19912;-63
2022/07/01 08:45:32;;;;;;;;;;;28.80;47.20;;;;;;5051402;28;20007;-63
2022/07/01 08:48:00;;;;;;;;;;;28.80;47.40;;;;;;5049192;28;19909;-63
2022/07/01 08:50:26;;;;;;;;;;;28.80;47.60;;;;;;5050098;28;19920;-63
2022/07/01 08:52:52;;;;;;;;;;;28.70;47.60;;;;;;5046177;28;19909;-63
2022/07/01 08:55:18;;;;;;;;;;;28.60;47.60;;;;;;5051141;28;19951;-63
2022/07/01 08:57:44;;;;;;;;;;;28.60;47.70;;;;;;5049792;28;19917;-63
2022/07/01 09:00:09;;;;;;;;;;;28.60;47.90;;;;;;5051012;28;19909;-63
2022/07/01 09:02:51;;;;;;;;;;;28.60;47.70;;;;;;5048998;28;19920;-63
2022/07/01 09:05:17;;;;;;;;;;;28.60;47.70;;;;;;5051539;28;19913;-62
2022/07/01 09:07:42;;;;;;;;;;;28.60;47.60;;;;;;5051210;28;19913;-62
2022/07/01 09:10:18;;;;;;;;;;;28.70;47.70;;;;;;5049351;28;20361;-63
2022/07/01 09:12:46;;;;;;;;;;;28.60;47.60;;;;;;5049522;28;19909;-63
2022/07/01 09:15:30;;;;;;;;;;;28.60;47.50;;;;;;5049655;28;19970;-63
2022/07/01 09:17:56;;;;;;;;;;;28.70;47.60;;;;;;5053244;28;19916;-63
2022/07/01 09:20:22;;;;;;;;;;;28.70;47.60;;;;;;5053639;28;19909;-63
2022/07/01 09:23:01;;;;;;;;;;;28.70;47.60;;;;;;5054465;28;19923;-63
2022/07/01 09:25:30;;;;;;;;;;;28.60;47.50;;;;;;5022855;28;19913;-63
2022/07/01 09:28:14;;;;;;;;;;;28.60;47.60;;;;;;5053077;28;19919;-63
2022/07/01 09:30:41;;;;;;;;;;;28.60;47.60;;;;;;5054316;28;19920;-63
2022/07/01 09:33:06;;;;;;;;;;;28.50;47.70;;;;;;5053135;28;19909;-63
2022/07/01 09:35:32;;;;;;;;;;;28.50;47.80;;;;;;5053033;28;20280;-63
2022/07/01 09:37:57;;;;;;;;;;;28.50;47.70;;;;;;5054047;28;19956;-63
2022/07/01 09:40:23;;;;;;;;;;;28.50;47.80;;;;;;5054230;28;19909;-63
2022/07/01 09:42:48;;;;;;;;;;;28.50;47.90;;;;;;5050345;28;20434;-62
2022/07/01 09:45:14;;;;;;;;;;;28.50;47.70;;;;;;5051754;28;19917;-62
2022/07/01 09:47:40;;;;;;;;;;;28.60;47.40;;;;;;5052680;28;20467;-62
2022/07/01 09:50:05;;;;;;;;;;;28.70;47.20;;;;;;5052437;28;19917;-62
2022/07/01 09:52:31;;;;;;;;;;;28.60;47.00;;;;;;5052681;28;19913;-62
2022/07/01 09:54:56;;;;;;;;;;;28.70;47.00;;;;;;5052656;28;20347;-62
2022/07/01 09:57:22;;;;;;;;;;;28.70;46.90;;;;;;5053680;28;19913;-62
2022/07/01 09:59:48;;;;;;;;;;;28.70;47.00;;;;;;5052737;28;19999;-62
2022/07/01 10:02:13;;;;;;;;;;;28.70;46.80;;;;;;5051264;28;19931;-62
2022/07/01 10:04:39;;;;;;;;;;;28.70;47.00;;;;;;5053676;28;20376;-62
2022/07/01 10:07:24;;;;;;;;;;;28.70;47.10;;;;;;5053419;28;19913;-62
2022/07/01 10:09:55;;;;;;;;;;;28.70;47.10;;;;;;5053481;28;19921;-62
2022/07/01 10:12:21;;;;;;;;;;;28.60;47.10;;;;;;5052017;28;20631;-62
2022/07/01 10:14:46;;;;;;;;;;;28.60;47.00;;;;;;5053706;28;20015;-62
2022/07/01 10:17:31;;;;;;;;;;;28.60;47.00;;;;;;5033989;28;19909;-62
2022/07/01 10:19:57;;;;;;;;;;;28.60;47.00;;;;;;5053229;28;19909;-62
2022/07/01 10:22:29;;;;;;;;;;;28.60;46.90;;;;;;5053162;28;19909;-62
2022/07/01 10:24:55;;;;;;;;;;;28.60;47.00;;;;;;5053152;28;20002;-62
2022/07/01 10:27:21;;;;;;;;;;;28.60;46.80;;;;;;5052241;28;19913;-62
2022/07/01 10:29:46;;;;;;;;;;;28.60;46.90;;;;;;5052289;28;20383;-62
2022/07/01 10:32:21;;;;;;;;;;;28.60;46.80;;;;;;5050883;28;19913;-62
2022/07/01 10:34:46;;;;;;;;;;;28.60;46.80;;;;;;5053265;28;19908;-62
2022/07/01 10:37:12;;;;;;;;;;;28.60;46.80;;;;;;5052631;28;20374;-62
2022/07/01 10:40:00;;;;;;;;;;;28.60;46.80;;;;;;5053097;28;19909;-62
2022/07/01 10:42:32;;;;;;;;;;;28.50;46.90;;;;;;5051527;28;19919;-62
2022/07/01 10:45:01;;;;;;;;;;;28.50;46.90;;;;;;5053082;28;19920;-62
2022/07/01 10:47:27;;;;;;;;;;;28.50;47.60;;;;;;5051870;28;19920;-62
2022/07/01 10:49:54;;;;;;;;;;;28.50;46.90;;;;;;5050993;28;19917;-62
2022/07/01 10:52:19;;;;;;;;;;;28.50;46.80;;;;;;5047762;28;19920;-62
2022/07/01 10:54:45;;;;;;;;;;;28.50;46.70;;;;;;5048066;28;19962;-62
2022/07/01 10:57:18;;;;;;;;;;;28.50;46.70;;;;;;5050091;28;21424;-62
2022/07/01 10:59:50;;;;;;;;;;;28.50;46.70;;;;;;5050508;28;19913;-62
2022/07/01 11:02:19;;;;;;;;;;;28.50;46.60;;;;;;5051499;28;19909;-62
2022/07/01 11:04:45;;;;;;;;;;;28.50;46.60;;;;;;5052975;28;19924;-62
2022/07/01 11:07:10;;;;;;;;;;;28.50;46.70;;;;;;5050933;28;19916;-62
2022/07/01 11:09:36;;;;;;;;;;;28.50;46.70;;;;;;5052288;28;19953;-62
2022/07/01 11:12:02;;;;;;;;;;;28.40;46.60;;;;;;5049938;28;20029;-62
2022/07/01 11:14:27;;;;;;;;;;;28.40;46.70;;;;;;5050924;28;19963;-62
2022/07/01 11:16:53;;;;;;;;;;;28.40;46.80;;;;;;5050145;28;19909;-62
2022/07/01 11:19:19;;;;;;;;;;;28.30;46.80;;;;;;5051154;28;19917;-62
2022/07/01 11:21:50;;;;;;;;;;;28.40;46.80;;;;;;5050797;28;19920;-62
2022/07/01 11:24:16;;;;;;;;;;;28.30;46.80;;;;;;5050899;28;20010;-62
2022/07/01 11:26:42;;;;;;;;;;;28.30;46.80;;;;;;5051585;28;19920;-62
2022/07/01 11:29:09;;;;;;;;;;;28.30;46.70;;;;;;5051979;28;19916;-62
2022/07/01 11:31:35;;;;;;;;;;;28.40;46.60;;;;;;5046656;28;20039;-62
2022/07/01 11:34:01;;;;;;;;;;;28.40;46.60;;;;;;5051934;28;19987;-62
2022/07/01 11:39:22;;;;;;;;;;;28.40;46.50;;;;;;5050193;28;20335;-62
2022/07/01 11:41:54;;;;;;;;;;;28.30;46.70;;;;;;5049526;28;19933;-62
2022/07/01 11:44:33;;;;;;;;;;;28.40;46.70;;;;;;5044270;28;19952;-63
2022/07/01 11:46:59;;;;;;;;;;;28.40;46.60;;;;;;5049388;28;19916;-63
2022/07/01 11:49:25;;;;;;;;;;;28.30;46.60;;;;;;5050559;28;19999;-63
2022/07/01 11:51:57;;;;;;;;;;;28.30;46.70;;;;;;5051320;28;19967;-63
2022/07/01 11:54:22;;;;;;;;;;;28.30;46.70;;;;;;5051768;28;19909;-63
2022/07/01 11:56:48;;;;;;;;;;;28.30;46.50;;;;;;5048501;28;20014;-63
2022/07/01 11:59:13;;;;;;;;;;;28.30;46.40;;;;;;5050541;28;20342;-63
2022/07/01 12:01:39;;;;;;;;;;;28.30;46.50;;;;;;5049530;28;19964;-62
2022/07/01 12:04:06;;;;;;;;;;;28.30;46.40;;;;;;5051370;28;19916;-62
2022/07/01 12:06:32;;;;;;;;;;;28.30;46.40;;;;;;5042215;28;19920;-62
2022/07/01 12:08:57;;;;;;;;;;;28.30;46.30;;;;;;5047561;28;19913;-62
2022/07/01 12:11:23;;;;;;;;;;;28.30;46.40;;;;;;5051288;28;19996;-62
2022/07/01 12:13:49;;;;;;;;;;;28.30;46.30;;;;;;5048982;28;19967;-62
2022/07/01 12:16:15;;;;;;;;;;;28.20;46.30;;;;;;5051131;28;19989;-62
2022/07/01 12:19:02;;;;;;;;;;;28.20;46.30;;;;;;5029566;28;19917;-62
2022/07/01 12:21:28;;;;;;;;;;;28.30;46.20;;;;;;5043924;28;19973;-62
2022/07/01 12:24:04;;;;;;;;;;;28.20;46.90;;;;;;5042870;28;20360;-62
2022/07/01 12:26:29;;;;;;;;;;;28.30;46.40;;;;;;5043322;28;19916;-62
2022/07/01 12:28:54;;;;;;;;;;;28.20;46.30;;;;;;5049064;28;19917;-62
2022/07/01 12:31:20;;;;;;;;;;;28.20;46.30;;;;;;5050034;28;19929;-62
2022/07/01 12:33:49;;;;;;;;;;;28.20;46.30;;;;;;5048626;28;20015;-62
2022/07/01 12:36:15;;;;;;;;;;;28.20;46.30;;;;;;5041123;28;19917;-62
2022/07/01 12:38:41;;;;;;;;;;;28.20;46.20;;;;;;5048439;28;20284;-62
2022/07/01 12:41:25;;;;;;;;;;;28.10;46.10;;;;;;5050048;28;19910;-63
2022/07/01 12:43:51;;;;;;;;;;;28.10;46.00;;;;;;5051463;28;20331;-63
2022/07/01 12:46:26;;;;;;;;;;;28.10;46.00;;;;;;5051323;28;19961;-62
2022/07/01 12:48:51;;;;;;;;;;;28.20;46.00;;;;;;5049799;28;20300;-62
2022/07/01 12:51:17;;;;;;;;;;;28.20;46.00;;;;;;5051323;28;19913;-62
2022/07/01 12:53:42;;;;;;;;;;;28.20;45.80;;;;;;5052153;28;20009;-62
2022/07/01 12:56:08;;;;;;;;;;;28.20;45.80;;;;;;5054814;28;19916;-62
2022/07/01 12:58:33;;;;;;;;;;;28.20;45.70;;;;;;5054992;28;20007;-62
2022/07/01 13:00:59;;;;;;;;;;;28.10;45.70;;;;;;5055028;28;19915;-62
2022/07/01 13:03:25;;;;;;;;;;;28.10;45.50;;;;;;5052859;28;19912;-62
2022/07/01 13:05:51;;;;;;;;;;;28.10;45.50;;;;;;5054886;28;19920;-62
2022/07/01 13:08:17;;;;;;;;;;;28.10;45.50;;;;;;5053193;28;19920;-62
2022/07/01 13:10:42;;;;;;;;;;;28.20;45.60;;;;;;5054539;28;19943;-62
2022/07/01 13:13:08;;;;;;;;;;;28.20;45.50;;;;;;5054354;28;19916;-62
2022/07/01 13:15:34;;;;;;;;;;;28.20;45.50;;;;;;5054752;28;19915;-62
2022/07/01 13:17:59;;;;;;;;;;;28.20;45.40;;;;;;5053659;28;19913;-62
2022/07/01 13:20:25;;;;;;;;;;;28.10;45.30;;;;;;5053271;28;19917;-62
2022/07/01 13:22:50;;;;;;;;;;;28.10;45.20;;;;;;5053067;28;19917;-62
2022/07/01 13:25:16;;;;;;;;;;;28.10;45.20;;;;;;5054901;28;19909;-62
2022/07/01 13:27:43;;;;;;;;;;;28.20;45.20;;;;;;5054213;28;19924;-62
2022/07/01 13:30:08;;;;;;;;;;;28.20;45.20;;;;;;5052831;28;19974;-63
2022/07/01 13:32:34;;;;;;;;;;;28.20;45.20;;;;;;5052221;28;19995;-63
2022/07/01 13:35:01;;;;;;;;;;;28.20;45.10;;;;;;5054341;28;20445;-63
2022/07/01 13:37:26;;;;;;;;;;;28.20;44.90;;;;;;5052494;28;19959;-63
2022/07/01 13:39:52;;;;;;;;;;;28.20;44.90;;;;;;5032645;28;19956;-62
2022/07/01 13:42:17;;;;;;;;;;;28.30;44.80;;;;;;5041185;28;19948;-62
2022/07/01 13:44:43;;;;;;;;;;;28.20;44.40;;;;;;5049634;28;19920;-63
2022/07/01 13:47:13;;;;;;;;;;;28.20;44.30;;;;;;5050117;28;19920;-62
2022/07/01 13:49:39;;;;;;;;;;;28.20;44.40;;;;;;5058846;28;19913;-63
2022/07/01 13:52:05;;;;;;;;;;;28.30;44.40;;;;;;5053536;28;19920;-63
2022/07/01 13:54:30;;;;;;;;;;;28.30;44.20;;;;;;5053811;28;19917;-62
2022/07/01 13:56:56;;;;;;;;;;;28.30;44.20;;;;;;5053759;28;19930;-63
2022/07/01 13:59:21;;;;;;;;;;;28.30;44.10;;;;;;5052616;28;20372;-63
2022/07/01 14:01:46;;;;;;;;;;;28.30;44.00;;;;;;5051456;28;19913;-63
2022/07/01 14:04:12;;;;;;;;;;;28.30;43.80;;;;;;5053537;28;19908;-63
2022/07/01 14:06:37;;;;;;;;;;;28.20;43.70;;;;;;5053940;28;19970;-63
2022/07/01 14:09:03;;;;;;;;;;;28.20;43.60;;;;;;5053573;28;20365;-63
2022/07/01 14:11:28;;;;;;;;;;;28.30;43.70;;;;;;5053626;28;19915;-63
2022/07/01 14:13:54;;;;;;;;;;;28.30;43.50;;;;;;5052386;28;19995;-63
2022/07/01 14:16:19;;;;;;;;;;;28.30;43.50;;;;;;5031756;28;19917;-63
2022/07/01 14:18:44;;;;;;;;;;;28.30;43.30;;;;;;5047544;28;19939;-63
2022/07/01 14:21:10;;;;;;;;;;;28.30;43.10;;;;;;5050021;28;19917;-63